Hauptseite
METAR-TAF:

METAR-TAF

Flughäfen :

Vlissingen, Niederlande

Breite: 51-27N, Länge: 3-36E, Höhe: 10 m

Beobachtung

Neuester Wetterbericht von vor 31 Minuten, um 05:25 UTC
Wind 16 kt aus West
Temperatur 9°C
Luftfeuchtigkeit 87%
Luftdruck 1011 hPa
Sichtweite 10 km oder mehr
Geschlossene Wolkendecke in der Höhe von 4100 ft

METAR: EHFS 070525Z AUTO 27016KT 9999 OVC041 09/07 Q1011 W///H///

Zeit: 06:56 (05:56 UTC)


TAF: fehlend

Wetterbeobachtungen und Prognosen von mehr als 4000 Flughäfen (METAR und TAF Bericht).

Die verfügbaren Stationen werden durch gelbe und rote Markierungen auf der Karte dargestellt.

Führen Sie die Maus auf sie, um den Namen der Station zu sehen.

Darauf klicken, um die Beobachtung von Wetterbeobachtungen und Prognosen zu sehen.

Um die Karte zu ändern : klicken Sie auf den grünen Tasten mit einem schwarzen Kreuz Zum Vergrößern, auf den grünen Button mit einem Gedankenstrich zu verkleinern, oder auf die grünen Pfeile für benachbarte Karten.


METAR-TAF: